Terminal Aerodrome Forecast
Issued by NWS

Home | Current Version | Previous Version | Text Only | Print | Product List | Glossary On
Versions: 1 2 3 4 5 6 7 8 9 10 11 12 13 14 15 16
000
FTUS44 KOUN 221720
TAFGAG
TAF
KGAG 221720Z 2218/2318 20012KT P6SM SKC
     FM230000 16009KT P6SM BKN200
     FM230600 02011KT P6SM OVC040 PROB30 2312/2318 5SM -TSRA
      OVC025CB=

USA.gov is the U.S. government's official web portal to all federal, state and local government web resources and services.